createdAt,value
2017-11-24T00:01:10.396Z,18.08
2017-11-24T00:02:22.435Z,18.12
2017-11-24T00:03:34.968Z,18.17
2017-11-24T00:04:47.497Z,18.14
2017-11-24T00:06:00.501Z,18.08
2017-11-24T00:07:13.509Z,18.15
2017-11-24T00:08:26.498Z,18.12
2017-11-24T00:09:39.502Z,18.17
2017-11-24T00:10:52.494Z,18.15
2017-11-24T00:12:05.530Z,18.11
2017-11-24T00:13:18.528Z,18.15
2017-11-24T00:14:31.564Z,18.12
2017-11-24T00:15:44.746Z,18.17
2017-11-24T00:16:57.541Z,18.14
2017-11-24T00:18:10.525Z,18.07
2017-11-24T00:19:23.557Z,18.17
2017-11-24T00:20:36.106Z,18.15
2017-11-24T00:21:49.118Z,18.25
2017-11-24T00:23:01.582Z,18.2
2017-11-24T00:24:14.548Z,18.2
2017-11-24T00:25:27.071Z,18.26
2017-11-24T00:26:40.033Z,18.27
2017-11-24T00:27:53.036Z,18.21
2017-11-24T00:29:05.555Z,18.32
2017-11-24T00:30:18.547Z,18.27
2017-11-24T00:31:31.088Z,18.29
2017-11-24T00:32:44.074Z,18.29
2017-11-24T00:33:57.040Z,18.32
2017-11-24T00:35:10.043Z,18.3
2017-11-24T00:36:23.043Z,18.27
2017-11-24T00:37:36.078Z,18.26
2017-11-24T00:38:49.310Z,18.27
2017-11-24T00:40:02.323Z,18.18
2017-11-24T00:41:14.858Z,18.23
2017-11-24T00:42:27.829Z,18.2
2017-11-24T00:43:40.822Z,18.32
2017-11-24T00:44:53.786Z,18.37
2017-11-24T00:46:05.834Z,18.33
2017-11-24T00:47:19.019Z,18.3
2017-11-24T00:48:31.595Z,18.32
2017-11-24T00:49:44.606Z,18.32
2017-11-24T00:50:57.626Z,18.26
2017-11-24T00:52:09.662Z,18.25
2017-11-24T00:53:22.597Z,18.32
2017-11-24T00:54:35.600Z,18.33
2017-11-24T00:55:48.120Z,18.41
2017-11-24T00:57:00.610Z,18.3
2017-11-24T00:58:12.730Z,18.42
2017-11-24T00:59:25.244Z,18.41
2017-11-24T01:00:37.314Z,18.37
2017-11-24T01:01:50.315Z,18.47
2017-11-24T01:03:03.270Z,18.37
2017-11-24T01:04:15.779Z,18.44
2017-11-24T01:05:28.743Z,18.52
2017-11-24T01:06:41.720Z,18.51
2017-11-24T01:07:54.746Z,18.5
2017-11-24T01:09:07.701Z,18.47
2017-11-24T01:10:20.654Z,18.42
2017-11-24T01:11:33.218Z,18.52
2017-11-24T01:12:45.721Z,18.54
2017-11-24T01:13:58.747Z,18.52
2017-11-24T01:15:11.761Z,18.57
2017-11-24T01:16:24.754Z,18.5
2017-11-24T01:17:37.733Z,18.65
2017-11-24T01:18:50.718Z,18.48
2017-11-24T01:20:03.928Z,18.47
2017-11-24T01:21:16.900Z,18.45
2017-11-24T01:22:29.943Z,18.52
2017-11-24T01:23:42.978Z,18.51
2017-11-24T01:24:56.010Z,18.5
2017-11-24T01:26:08.747Z,18.55
2017-11-24T01:27:21.235Z,18.42
2017-11-24T01:28:33.302Z,18.48
2017-11-24T01:29:45.984Z,18.51
2017-11-24T01:30:58.980Z,18.52
2017-11-24T01:32:11.972Z,18.54
2017-11-24T01:33:24.507Z,18.45
2017-11-24T01:34:37.020Z,18.55
2017-11-24T01:35:50.221Z,18.54
2017-11-24T01:37:03.453Z,18.44
2017-11-24T01:38:15.473Z,18.37
2017-11-24T01:39:28.434Z,18.47
2017-11-24T01:40:41.431Z,18.51
2017-11-24T01:41:54.596Z,18.39
2017-11-24T01:43:07.576Z,18.5
2017-11-24T01:44:20.085Z,18.52
2017-11-24T01:45:33.065Z,18.47
2017-11-24T01:46:46.039Z,18.44
2017-11-24T01:47:59.050Z,18.47
2017-11-24T01:49:12.041Z,18.51
2017-11-24T01:50:24.520Z,18.42
2017-11-24T01:51:37.886Z,18.44
2017-11-24T01:52:51.084Z,18.45
2017-11-24T01:54:03.612Z,18.54
2017-11-24T01:55:16.343Z,18.44
2017-11-24T01:56:29.342Z,18.44
2017-11-24T01:57:42.316Z,18.51
2017-11-24T01:58:55.314Z,18.51
2017-11-24T02:00:08.323Z,18.5
2017-11-24T02:01:21.292Z,18.48
2017-11-24T02:02:33.793Z,18.55
2017-11-24T02:03:46.754Z,18.41
2017-11-24T02:04:59.758Z,18.54
2017-11-24T02:06:12.306Z,18.44
2017-11-24T02:07:24.888Z,18.44
2017-11-24T02:08:37.844Z,18.51
2017-11-24T02:09:50.366Z,18.47
2017-11-24T02:11:02.426Z,18.48
2017-11-24T02:12:14.991Z,18.45
2017-11-24T02:13:27.981Z,18.54
2017-11-24T02:14:40.517Z,18.48
2017-11-24T02:15:53.490Z,18.44
2017-11-24T02:17:06.469Z,18.48
2017-11-24T02:18:19.509Z,18.47
2017-11-24T02:19:32.481Z,18.57
2017-11-24T02:20:45.521Z,18.54
2017-11-24T02:21:58.532Z,18.51
2017-11-24T02:23:10.654Z,18.5
2017-11-24T02:24:23.639Z,18.42
2017-11-24T02:25:36.638Z,18.48
2017-11-24T02:26:49.130Z,18.51
2017-11-24T02:28:01.775Z,18.55
2017-11-24T02:29:14.751Z,18.39
2017-11-24T02:30:27.791Z,18.45
2017-11-24T02:31:39.361Z,18.57
2017-11-24T02:32:51.870Z,18.45
2017-11-24T02:34:04.889Z,18.47
2017-11-24T02:35:17.901Z,18.33
2017-11-24T02:36:30.881Z,18.35
2017-11-24T02:37:43.886Z,18.39
2017-11-24T02:38:56.866Z,18.21
2017-11-24T02:40:09.375Z,18.23
2017-11-24T02:41:21.875Z,18.17
2017-11-24T02:42:34.881Z,18.17
2017-11-24T02:43:48.062Z,18.26
2017-11-24T02:45:00.589Z,18.2
2017-11-24T02:46:12.178Z,18.26
2017-11-24T02:47:25.211Z,18.23
2017-11-24T02:48:38.401Z,18.2
2017-11-24T02:49:51.428Z,18.15
2017-11-24T02:51:04.447Z,18.12
2017-11-24T02:52:16.975Z,18.17
2017-11-24T02:53:29.728Z,18.2
2017-11-24T02:54:42.876Z,18.21
2017-11-24T02:55:55.889Z,18.15
2017-11-24T02:57:08.910Z,18.1
2017-11-24T02:58:21.916Z,18.08
2017-11-24T02:59:34.930Z,18.17
2017-11-24T03:00:47.940Z,18.2
2017-11-24T03:02:01.166Z,18.07
2017-11-24T03:03:14.402Z,18.14
2017-11-24T03:04:26.454Z,18.18
2017-11-24T03:05:39.178Z,18.14
2017-11-24T03:06:52.363Z,18.26
2017-11-24T03:08:05.575Z,18.21
2017-11-24T03:09:18.037Z,18.12
2017-11-24T03:10:31.218Z,18.2
2017-11-24T03:11:43.781Z,18.18
2017-11-24T03:12:56.791Z,18.12
2017-11-24T03:14:09.810Z,18.21
2017-11-24T03:15:22.357Z,18.17
2017-11-24T03:16:34.858Z,18.17
2017-11-24T03:17:48.305Z,18.1
2017-11-24T03:19:01.445Z,18.2
2017-11-24T03:20:14.419Z,18.18
2017-11-24T03:21:27.138Z,18.14
2017-11-24T03:22:39.680Z,18.12
2017-11-24T03:23:51.760Z,18.15
2017-11-24T03:25:04.972Z,18.11
2017-11-24T03:26:18.208Z,18.1
2017-11-24T03:27:31.197Z,18.12
2017-11-24T03:28:44.360Z,18.15
2017-11-24T03:29:57.573Z,18.03
2017-11-24T03:31:10.617Z,18.11
2017-11-24T03:32:23.197Z,18.11
2017-11-24T03:33:36.163Z,18.14
2017-11-24T03:34:48.712Z,18.14
2017-11-24T03:36:01.947Z,18.2
2017-11-24T03:37:14.919Z,18.1
2017-11-24T03:38:27.878Z,18.15
2017-11-24T03:39:40.879Z,18.12
2017-11-24T03:40:53.843Z,18.1
2017-11-24T03:42:06.841Z,18.07
2017-11-24T03:43:19.830Z,18.11
2017-11-24T03:44:32.815Z,18.02
2017-11-24T03:45:45.815Z,18.02
2017-11-24T03:46:58.350Z,17.97
2017-11-24T03:48:11.346Z,18.03
2017-11-24T03:49:24.391Z,18.07
2017-11-24T03:50:36.904Z,17.99
2017-11-24T03:51:49.637Z,17.97
2017-11-24T03:53:02.605Z,17.96
2017-11-24T03:54:15.609Z,18
2017-11-24T03:55:28.781Z,18
2017-11-24T03:56:41.301Z,17.95
2017-11-24T03:57:54.298Z,18
2017-11-24T03:59:07.703Z,17.9
2017-11-24T04:00:20.689Z,17.93
2017-11-24T04:01:33.749Z,17.93
2017-11-24T04:02:47.152Z,17.97
2017-11-24T04:04:00.147Z,17.99
2017-11-24T04:05:13.551Z,17.92
2017-11-24T04:06:26.268Z,17.93
2017-11-24T04:07:38.972Z,17.84
2017-11-24T04:08:51.490Z,17.86
2017-11-24T04:10:04.282Z,17.77
2017-11-24T04:11:17.477Z,17.86
2017-11-24T04:12:30.506Z,17.81
2017-11-24T04:13:43.040Z,17.81
2017-11-24T04:14:55.558Z,17.84
2017-11-24T04:16:08.589Z,17.78
2017-11-24T04:17:21.595Z,17.84
2017-11-24T04:18:34.560Z,17.81
2017-11-24T04:19:47.569Z,17.86
2017-11-24T04:20:59.619Z,17.87
2017-11-24T04:22:12.121Z,17.87
2017-11-24T04:23:24.625Z,17.84
2017-11-24T04:24:37.574Z,17.84
2017-11-24T04:25:50.596Z,17.89
2017-11-24T04:27:03.126Z,17.75
2017-11-24T04:28:16.318Z,17.82
2017-11-24T04:29:28.845Z,17.78
2017-11-24T04:30:41.826Z,17.79
2017-11-24T04:31:54.809Z,17.77
2017-11-24T04:33:07.833Z,17.82
2017-11-24T04:34:21.005Z,17.74
2017-11-24T04:35:34.000Z,17.75
2017-11-24T04:36:46.925Z,17.81
2017-11-24T04:38:00.138Z,17.77
2017-11-24T04:39:13.297Z,17.72
2017-11-24T04:40:25.765Z,17.63
2017-11-24T04:41:38.803Z,17.68
2017-11-24T04:42:51.775Z,17.66
2017-11-24T04:44:04.741Z,17.58
2017-11-24T04:45:17.770Z,17.59
2017-11-24T04:46:30.300Z,17.52
2017-11-24T04:47:43.506Z,17.51
2017-11-24T04:48:56.719Z,17.52
2017-11-24T04:50:09.674Z,17.55
2017-11-24T04:51:22.669Z,17.49
2017-11-24T04:52:35.661Z,17.48
2017-11-24T04:53:48.142Z,17.54
2017-11-24T04:55:01.374Z,17.46
2017-11-24T04:56:14.347Z,17.54
2017-11-24T04:57:26.863Z,17.46
2017-11-24T04:58:40.099Z,17.41
2017-11-24T04:59:53.317Z,17.46
2017-11-24T05:01:06.533Z,17.43
2017-11-24T05:02:19.079Z,17.43
2017-11-24T05:03:31.604Z,17.51
2017-11-24T05:04:44.618Z,17.55
2017-11-24T05:05:57.846Z,17.52
2017-11-24T05:07:10.883Z,17.55
2017-11-24T05:08:24.115Z,17.56
2017-11-24T05:09:37.368Z,17.55
2017-11-24T05:10:49.411Z,17.51
2017-11-24T05:12:02.401Z,17.44
2017-11-24T05:13:14.934Z,17.48
2017-11-24T05:14:28.079Z,17.33
2017-11-24T05:15:41.116Z,17.43
2017-11-24T05:16:54.133Z,17.25
2017-11-24T05:18:07.555Z,17.31
2017-11-24T05:19:20.503Z,17.28
2017-11-24T05:20:33.504Z,17.37
2017-11-24T05:21:46.461Z,17.31
2017-11-24T05:22:59.457Z,17.33
2017-11-24T05:24:12.630Z,17.36
2017-11-24T05:25:25.589Z,17.44
2017-11-24T05:26:38.965Z,17.3
2017-11-24T05:27:52.180Z,17.3
2017-11-24T05:29:05.206Z,17.37
2017-11-24T05:30:17.711Z,17.43
2017-11-24T05:31:30.621Z,17.37
2017-11-24T05:32:43.635Z,17.37
2017-11-24T05:33:56.650Z,17.37
2017-11-24T05:35:09.197Z,17.4
2017-11-24T05:36:22.388Z,17.36
2017-11-24T05:37:35.428Z,17.37
2017-11-24T05:38:47.941Z,17.38
2017-11-24T05:40:00.465Z,17.33
2017-11-24T05:41:13.020Z,17.36
2017-11-24T05:42:25.549Z,17.36
2017-11-24T05:43:38.523Z,17.41
2017-11-24T05:44:51.934Z,17.38
2017-11-24T05:46:04.922Z,17.36
2017-11-24T05:47:17.954Z,17.43
2017-11-24T05:48:30.961Z,17.36
2017-11-24T05:49:43.468Z,17.48
2017-11-24T05:50:56.849Z,17.38
2017-11-24T05:52:09.842Z,17.44
2017-11-24T05:53:22.852Z,17.48
2017-11-24T05:54:35.836Z,17.46
2017-11-24T05:55:48.886Z,17.46
2017-11-24T05:57:02.095Z,17.44
2017-11-24T05:58:15.053Z,17.33
2017-11-24T05:59:28.241Z,17.28
2017-11-24T06:00:40.756Z,17.4
2017-11-24T06:01:53.719Z,17.25
2017-11-24T06:03:05.750Z,17.21
2017-11-24T06:04:18.269Z,17.33
2017-11-24T06:05:31.293Z,17.21
2017-11-24T06:06:44.515Z,17.25
2017-11-24T06:07:57.555Z,17.23
2017-11-24T06:09:10.544Z,17.25
2017-11-24T06:10:23.573Z,17.3
2017-11-24T06:11:36.541Z,17.28
2017-11-24T06:12:49.262Z,17.36
2017-11-24T06:14:02.241Z,17.23
2017-11-24T06:15:15.255Z,17.36
2017-11-24T06:16:28.445Z,17.31
2017-11-24T06:17:41.459Z,17.33
2017-11-24T06:18:54.474Z,17.38
2017-11-24T06:20:07.423Z,17.33
2017-11-24T06:21:24.906Z,17.33
2017-11-24T06:23:32.274Z,17.22
2017-11-24T06:26:39.895Z,17.25
2017-11-24T06:29:18.852Z,17.31
2017-11-24T06:31:00.991Z,17.26
2017-11-24T06:32:22.559Z,17.33
2017-11-24T06:33:46.153Z,17.31
2017-11-24T06:35:02.995Z,17.33
2017-11-24T06:36:54.639Z,17.33
2017-11-24T06:38:13.511Z,17.26
2017-11-24T06:39:50.737Z,17.22
2017-11-24T06:41:27.503Z,17.31
2017-11-24T06:42:40.537Z,17.38
2017-11-24T06:43:53.070Z,17.23
2017-11-24T06:45:06.087Z,17.33
2017-11-24T06:46:19.110Z,17.31
2017-11-24T06:47:32.148Z,17.26
2017-11-24T06:48:45.345Z,17.22
2017-11-24T06:49:58.095Z,17.25
2017-11-24T06:51:10.630Z,17.22
2017-11-24T06:52:23.145Z,17.22
2017-11-24T06:53:35.709Z,17.19
2017-11-24T06:54:48.719Z,17.19
2017-11-24T06:56:01.667Z,17.07
2017-11-24T06:57:14.441Z,17.07
2017-11-24T06:58:27.669Z,17.07
2017-11-24T06:59:41.114Z,17.12
2017-11-24T07:00:54.133Z,17.06
2017-11-24T07:02:07.103Z,17.12
2017-11-24T07:03:20.045Z,17.03
2017-11-24T07:04:32.555Z,17.14
2017-11-24T07:05:45.727Z,17.15
2017-11-24T07:06:58.715Z,17.11
2017-11-24T07:08:11.970Z,17.16
2017-11-24T07:09:24.936Z,17.22
2017-11-24T07:10:37.481Z,17.19
2017-11-24T07:11:50.677Z,17.18
2017-11-24T07:13:03.649Z,17.19
2017-11-24T07:14:16.624Z,17.19
2017-11-24T07:15:29.627Z,17.16
2017-11-24T07:16:42.671Z,17.18
2017-11-24T07:17:55.675Z,17.21
2017-11-24T07:19:08.675Z,17.16
2017-11-24T07:20:21.855Z,17.15
2017-11-24T07:21:35.042Z,17.15
2017-11-24T07:22:48.272Z,17.19
2017-11-24T07:24:01.247Z,17.21
2017-11-24T07:25:13.790Z,17.19
2017-11-24T07:26:26.965Z,17.21
2017-11-24T07:27:39.947Z,17.18
2017-11-24T07:28:52.675Z,17.16
2017-11-24T07:30:05.665Z,17.18
2017-11-24T07:31:18.632Z,17.19
2017-11-24T07:32:31.648Z,17.16
2017-11-24T07:33:44.142Z,17.15
2017-11-24T07:34:57.131Z,17.22
2017-11-24T07:36:09.158Z,17.19
2017-11-24T07:37:22.352Z,17.18
2017-11-24T07:38:35.557Z,17.21
2017-11-24T07:39:48.119Z,17.22
2017-11-24T07:41:01.063Z,17.21
2017-11-24T07:42:14.089Z,17.19
2017-11-24T07:43:26.837Z,17.21
2017-11-24T07:44:39.834Z,17.28
2017-11-24T07:45:52.822Z,17.22
2017-11-24T07:47:05.849Z,17.06
2017-11-24T07:48:19.079Z,17.14
2017-11-24T07:49:32.098Z,17.03
2017-11-24T07:50:45.264Z,17.04
2017-11-24T07:51:58.480Z,17.03
2017-11-24T07:53:11.460Z,16.97
2017-11-24T07:54:24.416Z,17
2017-11-24T07:55:37.414Z,17.01
2017-11-24T07:56:50.464Z,17.01
2017-11-24T07:58:02.985Z,17.11
2017-11-24T07:59:16.160Z,17.03
2017-11-24T08:00:29.401Z,17.03
2017-11-24T08:01:41.895Z,17.15
2017-11-24T08:02:54.942Z,17.18
2017-11-24T08:04:07.668Z,17.14
2017-11-24T08:05:20.827Z,17.15
2017-11-24T08:06:33.394Z,17.19
2017-11-24T08:07:46.392Z,17.11
2017-11-24T08:08:59.787Z,17.18
2017-11-24T08:10:12.278Z,17.16
2017-11-24T08:11:25.007Z,17.16
2017-11-24T08:12:38.020Z,17.11
2017-11-24T08:13:50.537Z,17.08
2017-11-24T08:15:03.778Z,17
2017-11-24T08:16:16.344Z,16.91
2017-11-24T08:17:29.357Z,16.96
2017-11-24T08:18:41.908Z,16.98
2017-11-24T08:19:54.943Z,16.91
2017-11-24T08:21:07.676Z,16.91
2017-11-24T08:22:20.645Z,16.93
2017-11-24T08:23:33.825Z,16.96
2017-11-24T08:24:46.818Z,16.85
2017-11-24T08:26:00.036Z,16.89
2017-11-24T08:27:13.639Z,16.89
2017-11-24T08:28:26.877Z,16.94
2017-11-24T08:29:40.030Z,16.91
2017-11-24T08:30:53.206Z,17
2017-11-24T08:32:06.120Z,16.97
2017-11-24T08:33:18.664Z,16.97
2017-11-24T08:34:31.391Z,17.04
2017-11-24T08:35:44.389Z,17.01
2017-11-24T08:36:56.916Z,17.06
2017-11-24T08:38:09.446Z,17.07
2017-11-24T08:39:22.458Z,17.21
2017-11-24T08:40:34.954Z,17.19
2017-11-24T08:41:47.978Z,17.19
2017-11-24T08:43:00.988Z,17.16
2017-11-24T08:44:14.170Z,17.18
2017-11-24T08:45:27.195Z,17.23
2017-11-24T08:46:40.239Z,17.23
2017-11-24T08:47:53.225Z,17.19
2017-11-24T08:49:06.175Z,17.28
2017-11-24T08:50:19.379Z,17.19
2017-11-24T08:51:32.315Z,17.31
2017-11-24T08:52:45.301Z,17.37
2017-11-24T08:53:57.813Z,17.33
2017-11-24T08:55:10.807Z,17.3
2017-11-24T08:56:23.805Z,17.37
2017-11-24T08:57:36.323Z,17.33
2017-11-24T08:58:49.285Z,17.31
2017-11-24T09:00:02.491Z,17.3
2017-11-24T09:01:15.393Z,17.41
2017-11-24T09:02:27.954Z,17.44
2017-11-24T09:03:40.716Z,17.44
2017-11-24T09:04:53.735Z,17.52
2017-11-24T09:06:06.688Z,17.51
2017-11-24T09:07:19.219Z,17.54
2017-11-24T09:08:31.285Z,17.59
2017-11-24T09:09:44.471Z,17.59
2017-11-24T09:10:57.633Z,17.64
2017-11-24T09:12:09.674Z,17.66
2017-11-24T09:13:22.857Z,17.59
2017-11-24T09:14:35.967Z,17.58
2017-11-24T09:15:49.142Z,17.62
2017-11-24T09:17:02.126Z,17.63
2017-11-24T09:18:15.741Z,17.59
2017-11-24T09:19:28.941Z,17.64
2017-11-24T09:20:42.186Z,17.64
2017-11-24T09:21:55.227Z,17.71
2017-11-24T09:23:08.225Z,17.7
2017-11-24T09:24:21.929Z,17.54
2017-11-24T09:25:35.622Z,17.56
2017-11-24T09:26:48.552Z,17.48
2017-11-24T09:28:01.924Z,17.41
2017-11-24T09:29:14.548Z,17.41
2017-11-24T09:30:28.246Z,17.54
2017-11-24T09:31:41.496Z,17.64
2017-11-24T09:32:55.193Z,17.64
2017-11-24T09:34:08.876Z,17.86
2017-11-24T09:35:22.605Z,18.07
2017-11-24T09:36:36.300Z,18.2
2017-11-24T09:37:49.474Z,18.18
2017-11-24T09:39:03.189Z,18.25
2017-11-24T09:40:16.833Z,18.2
2017-11-24T09:41:30.508Z,18.18
2017-11-24T09:42:43.685Z,18.21
2017-11-24T09:43:57.388Z,18.15
2017-11-24T09:45:10.543Z,18.23
2017-11-24T09:46:24.245Z,18.21
2017-11-24T09:47:37.656Z,18.35
2017-11-24T09:48:51.382Z,18.37
2017-11-24T09:50:04.626Z,18.51
2017-11-24T09:51:18.501Z,18.63
2017-11-24T09:52:31.169Z,18.6
2017-11-24T09:53:44.846Z,18.78
2017-11-24T09:54:58.523Z,18.66
2017-11-24T09:56:12.258Z,18.51
2017-11-24T09:57:25.942Z,18.51
2017-11-24T09:58:39.098Z,18.42
2017-11-24T09:59:52.768Z,18.42
2017-11-24T10:01:05.962Z,18.67
2017-11-24T10:02:19.132Z,18.65
2017-11-24T10:03:32.319Z,18.85
2017-11-24T10:04:44.931Z,18.9
2017-11-24T10:05:58.093Z,19
2017-11-24T10:07:11.746Z,19.02
2017-11-24T10:08:25.407Z,18.84
2017-11-24T10:09:38.569Z,18.7
2017-11-24T10:10:52.291Z,18.69
2017-11-24T10:12:05.444Z,18.66
2017-11-24T10:13:19.165Z,18.62
2017-11-24T10:14:32.289Z,18.48
2017-11-24T10:15:46.177Z,18.62
2017-11-24T10:17:00.085Z,18.55
2017-11-24T10:18:13.763Z,18.54
2017-11-24T10:19:27.492Z,18.73
2017-11-24T10:20:40.677Z,18.9
2017-11-24T10:21:54.358Z,18.9
2017-11-24T10:23:07.568Z,18.84
2017-11-24T10:24:21.259Z,18.75
2017-11-24T10:25:34.950Z,18.75
2017-11-24T10:26:48.144Z,18.85
2017-11-24T10:28:01.838Z,18.87
2017-11-24T10:29:15.545Z,19.04
2017-11-24T10:30:28.678Z,19.04
2017-11-24T10:31:42.359Z,19.22
2017-11-24T10:32:55.523Z,19.25
2017-11-24T10:34:08.726Z,19.19
2017-11-24T10:35:21.888Z,19.26
2017-11-24T10:36:35.589Z,19.37
2017-11-24T10:37:49.296Z,19.23
2017-11-24T10:39:02.488Z,19.21
2017-11-24T10:40:16.212Z,19.31
2017-11-24T10:41:28.884Z,19.21
2017-11-24T10:42:41.567Z,19.19
2017-11-24T10:43:54.253Z,19.21
2017-11-24T10:45:07.495Z,19.25
2017-11-24T10:46:20.694Z,19.28
2017-11-24T10:47:32.849Z,19.36
2017-11-24T10:48:46.058Z,19.43
2017-11-24T10:49:59.741Z,19.46
2017-11-24T10:51:13.431Z,19.56
2017-11-24T10:52:27.114Z,19.62
2017-11-24T10:53:40.321Z,19.73
2017-11-24T10:54:53.985Z,19.71
2017-11-24T10:56:07.686Z,19.71
2017-11-24T10:57:21.427Z,19.84
2017-11-24T10:58:35.100Z,19.96
2017-11-24T10:59:48.836Z,20.23
2017-11-24T11:01:02.533Z,20.64
2017-11-24T11:02:15.237Z,20.91
2017-11-24T11:03:28.908Z,20.99
2017-11-24T11:04:42.557Z,21.1
2017-11-24T11:05:55.191Z,21.31
2017-11-24T11:07:08.374Z,21.49
2017-11-24T11:08:21.539Z,21.59
2017-11-24T11:09:35.236Z,21.49
2017-11-24T11:10:48.966Z,21.47
2017-11-24T11:12:02.027Z,21.64
2017-11-24T11:13:14.950Z,21.82
2017-11-24T11:14:28.122Z,22.03
2017-11-24T11:15:40.783Z,22.33
2017-11-24T11:16:54.504Z,22.46
2017-11-24T11:18:07.161Z,22.76
2017-11-24T11:19:20.872Z,23.15
2017-11-24T11:20:34.094Z,23.54
2017-11-24T11:21:47.786Z,23.58
2017-11-24T11:23:01.705Z,23.4
2017-11-24T11:24:14.355Z,23.05
2017-11-24T11:25:28.547Z,23.04
2017-11-24T11:26:42.199Z,23.28
2017-11-24T11:27:56.113Z,23.65
2017-11-24T11:29:09.297Z,23.88
2017-11-24T11:30:23.043Z,23.95
2017-11-24T11:31:36.732Z,24.02
2017-11-24T11:32:51.228Z,24.47
2017-11-24T11:34:05.118Z,25
2017-11-24T11:35:18.325Z,25.27
2017-11-24T11:36:32.023Z,25.43
2017-11-24T11:37:45.209Z,25.35
2017-11-24T11:38:58.884Z,25.33
2017-11-24T11:40:12.055Z,25.17
2017-11-24T11:41:25.755Z,25.39
2017-11-24T11:42:39.509Z,25.83
2017-11-24T11:43:52.201Z,26.67
2017-11-24T11:45:05.361Z,27.34
2017-11-24T11:46:19.034Z,27.7
2017-11-24T11:47:32.764Z,27.49
2017-11-24T11:48:46.512Z,27.36
2017-11-24T11:50:00.159Z,27.85
2017-11-24T11:51:12.810Z,28.29
2017-11-24T11:52:25.974Z,28.8
2017-11-24T11:53:39.671Z,28.67
2017-11-24T11:54:53.356Z,28.24
2017-11-24T11:56:06.561Z,27.99
2017-11-24T11:57:20.256Z,27.82
2017-11-24T11:58:33.985Z,27.29
2017-11-24T11:59:49.449Z,26.72
2017-11-24T12:01:02.743Z,26.57
2017-11-24T12:02:16.444Z,26.02
2017-11-24T12:03:30.237Z,25.79
2017-11-24T12:04:43.953Z,25.42
2017-11-24T12:05:57.587Z,25.08
2017-11-24T12:07:10.941Z,24.55
2017-11-24T12:08:24.298Z,24.58
2017-11-24T12:09:37.586Z,25.35
2017-11-24T12:10:50.766Z,26.21
2017-11-24T12:12:04.465Z,26.28
2017-11-24T12:13:17.643Z,26.36
2017-11-24T12:14:31.540Z,26.62
2017-11-24T12:15:45.226Z,26.92
2017-11-24T12:16:58.415Z,26.77
2017-11-24T12:18:12.159Z,26.54
2017-11-24T12:19:25.840Z,26.15
2017-11-24T12:20:39.567Z,25.79
2017-11-24T12:21:53.248Z,25.98
2017-11-24T12:23:06.587Z,26.18
2017-11-24T12:24:20.272Z,26.09
2017-11-24T12:25:33.997Z,26.17
2017-11-24T12:26:47.666Z,26.17
2017-11-24T12:28:00.840Z,26.3
2017-11-24T12:29:13.501Z,26.55
2017-11-24T12:30:26.618Z,26.77
2017-11-24T12:31:39.780Z,27.28
2017-11-24T12:32:54.551Z,27.43
2017-11-24T12:34:07.697Z,27.34
2017-11-24T12:35:21.330Z,27.02
2017-11-24T12:36:34.969Z,27.22
2017-11-24T12:37:48.660Z,27.18
2017-11-24T12:39:02.323Z,27.09
2017-11-24T12:40:16.028Z,27.27
2017-11-24T12:41:29.690Z,27.67
2017-11-24T12:42:43.438Z,27.47
2017-11-24T12:43:57.137Z,27.31
2017-11-24T12:45:20.625Z,27
2017-11-24T12:46:35.031Z,26.89
2017-11-24T12:47:48.587Z,27.04
2017-11-24T12:49:00.920Z,27.27
2017-11-24T12:50:14.606Z,27.75
2017-11-24T12:51:28.339Z,28.14
2017-11-24T12:52:41.494Z,28.49
2017-11-24T12:53:55.235Z,28.62
2017-11-24T12:55:08.981Z,28.74
2017-11-24T12:56:22.695Z,28.74
2017-11-24T12:57:35.840Z,29.12
2017-11-24T12:58:49.292Z,29.34
2017-11-24T13:00:02.951Z,29.63
2017-11-24T13:01:16.665Z,29.52
2017-11-24T13:02:29.823Z,28.9
2017-11-24T13:03:43.563Z,28.66
2017-11-24T13:04:57.289Z,28.27
2017-11-24T13:06:10.449Z,27.78
2017-11-24T13:07:24.116Z,27.49
2017-11-24T13:08:38.163Z,27.03
2017-11-24T13:09:51.882Z,26.77
2017-11-24T13:11:05.527Z,26.88
2017-11-24T13:12:19.785Z,27
2017-11-24T13:13:33.488Z,27.49
2017-11-24T13:14:47.161Z,27.84
2017-11-24T13:16:00.309Z,28.34
2017-11-24T13:17:13.984Z,29
2017-11-24T13:18:27.633Z,29.51
2017-11-24T13:19:41.317Z,29.95
2017-11-24T13:20:55.008Z,29.82
2017-11-24T13:22:08.722Z,29.15
2017-11-24T13:23:22.368Z,28.51
2017-11-24T13:24:36.058Z,28.17
2017-11-24T13:25:49.245Z,27.6
2017-11-24T13:27:02.919Z,26.89
2017-11-24T13:28:16.058Z,26.62
2017-11-24T13:29:29.672Z,26.92
2017-11-24T13:30:43.558Z,27.47
2017-11-24T13:31:56.736Z,28.17
2017-11-24T13:33:10.409Z,28.19
2017-11-24T13:34:24.129Z,27.75
2017-11-24T13:35:37.830Z,27.44
2017-11-24T13:36:51.522Z,27.18
2017-11-24T13:38:05.246Z,26.99
2017-11-24T13:39:18.402Z,27.07
2017-11-24T13:40:32.072Z,27.25
2017-11-24T13:41:45.271Z,27.1
2017-11-24T13:42:59.201Z,27.02
2017-11-24T13:44:12.893Z,26.84
2017-11-24T13:45:26.088Z,26.92
2017-11-24T13:46:39.730Z,27.02
2017-11-24T13:47:53.454Z,26.66
2017-11-24T13:49:07.152Z,26.5
2017-11-24T13:50:20.862Z,26.12
2017-11-24T13:51:34.087Z,26.28
2017-11-24T13:52:47.263Z,26.6
2017-11-24T13:54:00.938Z,26.72
2017-11-24T13:55:13.588Z,26.75
2017-11-24T13:56:26.761Z,27.25
2017-11-24T13:57:40.415Z,27.82
2017-11-24T13:58:54.074Z,28.34
2017-11-24T14:00:07.213Z,28.67
2017-11-24T14:01:20.956Z,28.78
2017-11-24T14:02:34.866Z,28.46
2017-11-24T14:03:48.559Z,28.59
2017-11-24T14:05:01.777Z,29.11
2017-11-24T14:06:15.520Z,29.6
2017-11-24T14:07:29.279Z,30.24
2017-11-24T14:08:43.197Z,30.47
2017-11-24T14:09:56.862Z,30.94
2017-11-24T14:11:10.557Z,31.34
2017-11-24T14:12:23.730Z,31.68
2017-11-24T14:13:37.418Z,31.57
2017-11-24T14:14:51.097Z,31.26
2017-11-24T14:16:04.792Z,30.8
2017-11-24T14:17:17.931Z,30.11
2017-11-24T14:18:31.633Z,29.94
2017-11-24T14:19:45.365Z,30.11
2017-11-24T14:20:59.084Z,30.55
2017-11-24T14:22:12.739Z,30.88
2017-11-24T14:23:26.180Z,31.17
2017-11-24T14:24:39.335Z,31.07
2017-11-24T14:25:53.024Z,30.73
2017-11-24T14:27:06.704Z,30.51
2017-11-24T14:28:20.411Z,30.42
2017-11-24T14:29:33.121Z,30.2
2017-11-24T14:30:46.317Z,30.23
2017-11-24T14:32:00.039Z,30.58
2017-11-24T14:33:13.723Z,30.55
2017-11-24T14:34:27.408Z,29.92
2017-11-24T14:35:40.590Z,29.42
2017-11-24T14:36:59.149Z,29.15
2017-11-24T14:38:17.262Z,29.16
2017-11-24T14:39:31.159Z,29.21
2017-11-24T14:40:44.853Z,29.27
2017-11-24T14:41:58.597Z,29.45
2017-11-24T14:43:12.650Z,29.57
2017-11-24T14:44:25.337Z,29.67
2017-11-24T14:45:39.050Z,29.63
2017-11-24T14:46:52.726Z,29.19
2017-11-24T14:48:05.936Z,29.27
2017-11-24T14:49:19.652Z,29.6
2017-11-24T14:50:32.895Z,30.02
2017-11-24T14:51:46.082Z,30.72
2017-11-24T14:52:59.843Z,31.46
2017-11-24T14:54:13.569Z,31.85
2017-11-24T14:55:27.254Z,32.38
2017-11-24T14:56:40.477Z,33.06
2017-11-24T14:57:54.505Z,33.39
2017-11-24T14:59:07.175Z,33.44
2017-11-24T15:00:20.907Z,33.35
2017-11-24T15:01:34.796Z,33.22
2017-11-24T15:02:48.477Z,33.26
2017-11-24T15:04:02.170Z,32.84
2017-11-24T15:05:15.877Z,32.15
2017-11-24T15:06:29.077Z,31.44
2017-11-24T15:07:42.300Z,31.25
2017-11-24T15:08:55.953Z,31.1
2017-11-24T15:10:18.027Z,31.02
2017-11-24T15:11:35.309Z,30.91
2017-11-24T15:12:49.006Z,31.1
2017-11-24T15:14:02.784Z,31.02
2017-11-24T15:15:15.945Z,30.75
2017-11-24T15:16:29.146Z,30.58
2017-11-24T15:17:42.829Z,30.43
2017-11-24T15:18:56.525Z,30.15
2017-11-24T15:20:10.197Z,30.02
2017-11-24T15:21:24.376Z,30.32
2017-11-24T15:22:37.536Z,30.43
2017-11-24T15:23:51.298Z,30.51
2017-11-24T15:25:04.469Z,30.62
2017-11-24T15:26:17.672Z,30.8
2017-11-24T15:27:31.425Z,31.28
2017-11-24T15:28:44.600Z,31.31
2017-11-24T15:29:59.817Z,30.77
2017-11-24T15:31:13.507Z,30.51
2017-11-24T15:32:27.158Z,30.47
2017-11-24T15:33:40.342Z,30.49
2017-11-24T15:34:54.055Z,30.46
2017-11-24T15:36:07.261Z,30.94
2017-11-24T15:37:20.980Z,31.63
2017-11-24T15:38:34.684Z,32.21
2017-11-24T15:39:48.386Z,32.59
2017-11-24T15:41:02.102Z,32.51
2017-11-24T15:42:15.300Z,32.84
2017-11-24T15:43:28.981Z,33.18
2017-11-24T15:44:42.204Z,33.45
2017-11-24T15:45:55.416Z,33.53
2017-11-24T15:47:10.013Z,33.87
2017-11-24T15:48:23.712Z,34.64
2017-11-24T15:49:37.377Z,35.43
2017-11-24T15:50:51.135Z,35.93
2017-11-24T15:52:04.865Z,36
2017-11-24T15:53:18.621Z,35.89